sensor_id;sensor_type;location;lat;lon;timestamp;P1;durP1;ratioP1;P2;durP2;ratioP2
71108;SDS011;59614;51.012;-1.648;2023-09-07T00:00:29;12.50;;;6.57;;
71108;SDS011;59614;51.012;-1.648;2023-09-07T00:02:55;12.05;;;6.70;;
71108;SDS011;59614;51.012;-1.648;2023-09-07T00:05:20;11.63;;;6.68;;
71108;SDS011;59614;51.012;-1.648;2023-09-07T00:07:46;13.23;;;5.93;;
71108;SDS011;59614;51.012;-1.648;2023-09-07T00:10:11;13.05;;;6.93;;
71108;SDS011;59614;51.012;-1.648;2023-09-07T00:12:37;10.63;;;6.10;;
71108;SDS011;59614;51.012;-1.648;2023-09-07T00:15:04;12.20;;;6.13;;
71108;SDS011;59614;51.012;-1.648;2023-09-07T00:17:31;11.55;;;6.63;;
71108;SDS011;59614;51.012;-1.648;2023-09-07T00:19:57;10.40;;;6.20;;
71108;SDS011;59614;51.012;-1.648;2023-09-07T00:22:23;11.30;;;6.38;;
71108;SDS011;59614;51.012;-1.648;2023-09-07T00:24:50;10.07;;;6.78;;
71108;SDS011;59614;51.012;-1.648;2023-09-07T00:27:16;9.00;;;6.07;;
71108;SDS011;59614;51.012;-1.648;2023-09-07T00:29:41;13.18;;;6.43;;
71108;SDS011;59614;51.012;-1.648;2023-09-07T00:32:07;14.30;;;6.40;;
71108;SDS011;59614;51.012;-1.648;2023-09-07T00:34:33;13.35;;;6.70;;
71108;SDS011;59614;51.012;-1.648;2023-09-07T00:36:59;10.30;;;5.93;;
71108;SDS011;59614;51.012;-1.648;2023-09-07T00:39:25;13.80;;;6.38;;
71108;SDS011;59614;51.012;-1.648;2023-09-07T00:41:50;12.93;;;6.85;;
71108;SDS011;59614;51.012;-1.648;2023-09-07T00:44:16;14.48;;;6.55;;
71108;SDS011;59614;51.012;-1.648;2023-09-07T00:46:41;18.48;;;6.97;;
71108;SDS011;59614;51.012;-1.648;2023-09-07T00:49:09;13.50;;;7.25;;
71108;SDS011;59614;51.012;-1.648;2023-09-07T00:51:36;17.95;;;7.05;;
71108;SDS011;59614;51.012;-1.648;2023-09-07T00:54:02;10.88;;;6.35;;
71108;SDS011;59614;51.012;-1.648;2023-09-07T00:56:28;12.15;;;6.97;;
71108;SDS011;59614;51.012;-1.648;2023-09-07T00:58:53;12.07;;;6.65;;
71108;SDS011;59614;51.012;-1.648;2023-09-07T01:01:21;10.38;;;6.57;;
71108;SDS011;59614;51.012;-1.648;2023-09-07T01:03:48;9.93;;;6.30;;
71108;SDS011;59614;51.012;-1.648;2023-09-07T01:06:20;14.30;;;6.47;;
71108;SDS011;59614;51.012;-1.648;2023-09-07T01:08:50;15.07;;;6.72;;
71108;SDS011;59614;51.012;-1.648;2023-09-07T01:11:17;14.48;;;7.03;;
71108;SDS011;59614;51.012;-1.648;2023-09-07T01:13:51;12.60;;;6.22;;
71108;SDS011;59614;51.012;-1.648;2023-09-07T01:18:45;15.33;;;7.47;;
71108;SDS011;59614;51.012;-1.648;2023-09-07T01:21:11;17.80;;;7.20;;
71108;SDS011;59614;51.012;-1.648;2023-09-07T01:23:37;12.38;;;7.35;;
71108;SDS011;59614;51.012;-1.648;2023-09-07T01:26:06;12.68;;;7.25;;
71108;SDS011;59614;51.012;-1.648;2023-09-07T01:28:33;15.30;;;6.78;;
71108;SDS011;59614;51.012;-1.648;2023-09-07T01:30:59;11.10;;;6.60;;
71108;SDS011;59614;51.012;-1.648;2023-09-07T01:33:24;12.27;;;6.78;;
71108;SDS011;59614;51.012;-1.648;2023-09-07T01:35:50;9.65;;;7.35;;
71108;SDS011;59614;51.012;-1.648;2023-09-07T01:38:15;13.48;;;7.15;;
71108;SDS011;59614;51.012;-1.648;2023-09-07T01:40:40;12.32;;;7.20;;
71108;SDS011;59614;51.012;-1.648;2023-09-07T01:43:21;14.80;;;7.28;;
71108;SDS011;59614;51.012;-1.648;2023-09-07T01:45:46;16.38;;;8.50;;
71108;SDS011;59614;51.012;-1.648;2023-09-07T01:48:13;12.68;;;7.63;;
71108;SDS011;59614;51.012;-1.648;2023-09-07T01:50:39;17.95;;;8.07;;
71108;SDS011;59614;51.012;-1.648;2023-09-07T01:53:05;14.70;;;7.20;;
71108;SDS011;59614;51.012;-1.648;2023-09-07T01:55:31;15.77;;;7.97;;
71108;SDS011;59614;51.012;-1.648;2023-09-07T01:57:57;14.55;;;7.90;;
71108;SDS011;59614;51.012;-1.648;2023-09-07T02:00:23;16.63;;;8.38;;
71108;SDS011;59614;51.012;-1.648;2023-09-07T02:02:48;15.45;;;8.63;;
71108;SDS011;59614;51.012;-1.648;2023-09-07T02:05:14;17.88;;;7.95;;
71108;SDS011;59614;51.012;-1.648;2023-09-07T02:07:39;14.68;;;8.25;;
71108;SDS011;59614;51.012;-1.648;2023-09-07T02:10:05;11.60;;;8.05;;
71108;SDS011;59614;51.012;-1.648;2023-09-07T02:12:31;12.38;;;8.73;;
71108;SDS011;59614;51.012;-1.648;2023-09-07T02:14:57;14.63;;;8.70;;
71108;SDS011;59614;51.012;-1.648;2023-09-07T02:17:27;18.60;;;10.23;;
71108;SDS011;59614;51.012;-1.648;2023-09-07T02:19:53;19.92;;;11.25;;
71108;SDS011;59614;51.012;-1.648;2023-09-07T02:22:19;19.92;;;12.40;;
71108;SDS011;59614;51.012;-1.648;2023-09-07T02:24:44;17.17;;;10.45;;
71108;SDS011;59614;51.012;-1.648;2023-09-07T02:27:10;22.25;;;12.02;;
71108;SDS011;59614;51.012;-1.648;2023-09-07T02:29:35;19.92;;;10.93;;
71108;SDS011;59614;51.012;-1.648;2023-09-07T02:32:01;28.63;;;13.02;;
71108;SDS011;59614;51.012;-1.648;2023-09-07T02:34:26;20.67;;;10.88;;
71108;SDS011;59614;51.012;-1.648;2023-09-07T02:36:51;24.13;;;12.70;;
71108;SDS011;59614;51.012;-1.648;2023-09-07T02:39:17;21.80;;;11.45;;
71108;SDS011;59614;51.012;-1.648;2023-09-07T02:41:43;21.00;;;12.32;;
71108;SDS011;59614;51.012;-1.648;2023-09-07T02:44:10;21.15;;;11.60;;
71108;SDS011;59614;51.012;-1.648;2023-09-07T02:46:35;23.13;;;12.30;;
71108;SDS011;59614;51.012;-1.648;2023-09-07T02:49:01;22.35;;;14.13;;
71108;SDS011;59614;51.012;-1.648;2023-09-07T02:51:26;23.50;;;12.43;;
71108;SDS011;59614;51.012;-1.648;2023-09-07T02:53:53;23.85;;;11.50;;
71108;SDS011;59614;51.012;-1.648;2023-09-07T02:56:18;21.30;;;12.05;;
71108;SDS011;59614;51.012;-1.648;2023-09-07T02:58:44;22.65;;;11.57;;
71108;SDS011;59614;51.012;-1.648;2023-09-07T03:01:10;20.95;;;12.77;;
71108;SDS011;59614;51.012;-1.648;2023-09-07T03:03:36;17.00;;;10.93;;
71108;SDS011;59614;51.012;-1.648;2023-09-07T03:06:11;29.52;;;12.07;;
71108;SDS011;59614;51.012;-1.648;2023-09-07T03:08:38;25.65;;;14.15;;
71108;SDS011;59614;51.012;-1.648;2023-09-07T03:11:07;26.92;;;13.23;;
71108;SDS011;59614;51.012;-1.648;2023-09-07T03:13:33;23.30;;;13.23;;
71108;SDS011;59614;51.012;-1.648;2023-09-07T03:16:00;30.63;;;15.55;;
71108;SDS011;59614;51.012;-1.648;2023-09-07T03:18:26;21.38;;;13.50;;
71108;SDS011;59614;51.012;-1.648;2023-09-07T03:20:52;23.95;;;13.57;;
71108;SDS011;59614;51.012;-1.648;2023-09-07T03:23:19;21.27;;;14.43;;
71108;SDS011;59614;51.012;-1.648;2023-09-07T03:25:44;23.38;;;14.82;;
71108;SDS011;59614;51.012;-1.648;2023-09-07T03:28:10;27.00;;;16.10;;
71108;SDS011;59614;51.012;-1.648;2023-09-07T03:30:35;30.58;;;16.88;;
71108;SDS011;59614;51.012;-1.648;2023-09-07T03:33:01;21.70;;;14.25;;
71108;SDS011;59614;51.012;-1.648;2023-09-07T03:35:28;25.15;;;15.80;;
71108;SDS011;59614;51.012;-1.648;2023-09-07T03:37:53;21.75;;;13.90;;
71108;SDS011;59614;51.012;-1.648;2023-09-07T03:40:19;21.02;;;14.85;;
71108;SDS011;59614;51.012;-1.648;2023-09-07T03:42:44;23.38;;;15.18;;
71108;SDS011;59614;51.012;-1.648;2023-09-07T03:45:11;26.67;;;14.80;;
71108;SDS011;59614;51.012;-1.648;2023-09-07T03:47:37;23.90;;;15.85;;
71108;SDS011;59614;51.012;-1.648;2023-09-07T03:50:03;23.48;;;14.75;;
71108;SDS011;59614;51.012;-1.648;2023-09-07T03:52:28;23.08;;;17.38;;
71108;SDS011;59614;51.012;-1.648;2023-09-07T03:54:54;18.60;;;13.10;;
71108;SDS011;59614;51.012;-1.648;2023-09-07T03:57:20;27.02;;;16.63;;
71108;SDS011;59614;51.012;-1.648;2023-09-07T03:59:47;32.28;;;15.48;;
71108;SDS011;59614;51.012;-1.648;2023-09-07T04:02:12;30.08;;;17.05;;
71108;SDS011;59614;51.012;-1.648;2023-09-07T04:04:38;23.50;;;17.10;;
71108;SDS011;59614;51.012;-1.648;2023-09-07T04:07:03;31.85;;;16.85;;
71108;SDS011;59614;51.012;-1.648;2023-09-07T04:09:29;25.50;;;16.10;;
71108;SDS011;59614;51.012;-1.648;2023-09-07T04:11:54;30.45;;;18.15;;
71108;SDS011;59614;51.012;-1.648;2023-09-07T04:14:20;30.00;;;18.95;;
71108;SDS011;59614;51.012;-1.648;2023-09-07T04:16:45;26.75;;;17.77;;
71108;SDS011;59614;51.012;-1.648;2023-09-07T04:19:11;27.73;;;18.23;;
71108;SDS011;59614;51.012;-1.648;2023-09-07T04:21:36;29.48;;;17.48;;
71108;SDS011;59614;51.012;-1.648;2023-09-07T04:24:03;33.50;;;19.73;;
71108;SDS011;59614;51.012;-1.648;2023-09-07T04:26:30;26.98;;;18.90;;
71108;SDS011;59614;51.012;-1.648;2023-09-07T04:28:55;32.28;;;20.15;;
71108;SDS011;59614;51.012;-1.648;2023-09-07T04:31:21;27.83;;;19.15;;
71108;SDS011;59614;51.012;-1.648;2023-09-07T04:33:46;23.13;;;18.30;;
71108;SDS011;59614;51.012;-1.648;2023-09-07T04:36:13;24.17;;;18.45;;
71108;SDS011;59614;51.012;-1.648;2023-09-07T04:38:40;28.30;;;20.15;;
71108;SDS011;59614;51.012;-1.648;2023-09-07T04:41:06;33.03;;;23.20;;
71108;SDS011;59614;51.012;-1.648;2023-09-07T04:43:35;29.45;;;18.88;;
71108;SDS011;59614;51.012;-1.648;2023-09-07T04:46:02;31.58;;;22.15;;
71108;SDS011;59614;51.012;-1.648;2023-09-07T04:48:28;27.30;;;19.50;;
71108;SDS011;59614;51.012;-1.648;2023-09-07T04:50:57;33.67;;;22.02;;
71108;SDS011;59614;51.012;-1.648;2023-09-07T04:53:29;27.85;;;21.63;;
71108;SDS011;59614;51.012;-1.648;2023-09-07T04:55:57;33.90;;;22.05;;
71108;SDS011;59614;51.012;-1.648;2023-09-07T04:58:23;33.50;;;24.15;;
71108;SDS011;59614;51.012;-1.648;2023-09-07T05:00:48;38.40;;;22.83;;
71108;SDS011;59614;51.012;-1.648;2023-09-07T05:03:14;28.23;;;20.40;;
71108;SDS011;59614;51.012;-1.648;2023-09-07T05:05:41;28.55;;;21.90;;
71108;SDS011;59614;51.012;-1.648;2023-09-07T05:08:07;28.85;;;21.02;;
71108;SDS011;59614;51.012;-1.648;2023-09-07T05:10:32;30.75;;;22.13;;
71108;SDS011;59614;51.012;-1.648;2023-09-07T05:12:58;34.05;;;25.45;;
71108;SDS011;59614;51.012;-1.648;2023-09-07T05:15:24;37.15;;;26.42;;
71108;SDS011;59614;51.012;-1.648;2023-09-07T05:17:49;32.95;;;23.92;;
71108;SDS011;59614;51.012;-1.648;2023-09-07T05:20:15;34.50;;;25.45;;
71108;SDS011;59614;51.012;-1.648;2023-09-07T05:22:40;39.65;;;29.60;;
71108;SDS011;59614;51.012;-1.648;2023-09-07T05:25:06;39.25;;;26.42;;
71108;SDS011;59614;51.012;-1.648;2023-09-07T05:27:33;37.97;;;25.33;;
71108;SDS011;59614;51.012;-1.648;2023-09-07T05:30:00;34.13;;;26.08;;
71108;SDS011;59614;51.012;-1.648;2023-09-07T05:32:25;36.80;;;28.80;;
71108;SDS011;59614;51.012;-1.648;2023-09-07T05:34:51;48.90;;;31.08;;
71108;SDS011;59614;51.012;-1.648;2023-09-07T05:37:16;38.17;;;26.92;;
71108;SDS011;59614;51.012;-1.648;2023-09-07T05:39:42;34.45;;;24.70;;
71108;SDS011;59614;51.012;-1.648;2023-09-07T05:42:07;52.45;;;34.38;;
71108;SDS011;59614;51.012;-1.648;2023-09-07T05:44:32;52.15;;;38.40;;
71108;SDS011;59614;51.012;-1.648;2023-09-07T05:46:58;51.97;;;35.38;;
71108;SDS011;59614;51.012;-1.648;2023-09-07T05:49:23;55.58;;;38.58;;
71108;SDS011;59614;51.012;-1.648;2023-09-07T05:51:49;57.22;;;41.90;;
71108;SDS011;59614;51.012;-1.648;2023-09-07T05:54:15;52.70;;;37.60;;
71108;SDS011;59614;51.012;-1.648;2023-09-07T05:56:40;70.88;;;45.00;;
71108;SDS011;59614;51.012;-1.648;2023-09-07T05:59:06;67.95;;;46.55;;
71108;SDS011;59614;51.012;-1.648;2023-09-07T06:01:31;66.25;;;46.58;;
71108;SDS011;59614;51.012;-1.648;2023-09-07T06:03:57;64.65;;;43.58;;
71108;SDS011;59614;51.012;-1.648;2023-09-07T06:06:23;68.10;;;43.67;;
71108;SDS011;59614;51.012;-1.648;2023-09-07T06:08:49;72.60;;;45.60;;
71108;SDS011;59614;51.012;-1.648;2023-09-07T06:11:15;66.00;;;43.92;;
71108;SDS011;59614;51.012;-1.648;2023-09-07T06:13:41;80.50;;;47.70;;
71108;SDS011;59614;51.012;-1.648;2023-09-07T06:16:06;74.90;;;48.17;;
71108;SDS011;59614;51.012;-1.648;2023-09-07T06:18:32;84.80;;;51.85;;
71108;SDS011;59614;51.012;-1.648;2023-09-07T06:20:57;85.30;;;52.97;;
71108;SDS011;59614;51.012;-1.648;2023-09-07T06:23:23;77.50;;;49.45;;
71108;SDS011;59614;51.012;-1.648;2023-09-07T06:25:48;76.40;;;49.65;;
71108;SDS011;59614;51.012;-1.648;2023-09-07T06:28:14;77.38;;;49.92;;
71108;SDS011;59614;51.012;-1.648;2023-09-07T06:30:39;81.80;;;52.10;;
71108;SDS011;59614;51.012;-1.648;2023-09-07T06:33:05;83.25;;;52.10;;
71108;SDS011;59614;51.012;-1.648;2023-09-07T06:35:30;83.60;;;53.33;;
71108;SDS011;59614;51.012;-1.648;2023-09-07T06:37:56;80.53;;;52.60;;
71108;SDS011;59614;51.012;-1.648;2023-09-07T06:40:21;80.78;;;51.70;;
71108;SDS011;59614;51.012;-1.648;2023-09-07T06:42:47;77.38;;;52.30;;
71108;SDS011;59614;51.012;-1.648;2023-09-07T06:45:12;71.50;;;48.40;;
71108;SDS011;59614;51.012;-1.648;2023-09-07T06:47:38;73.18;;;46.15;;
71108;SDS011;59614;51.012;-1.648;2023-09-07T06:50:04;84.68;;;53.47;;
71108;SDS011;59614;51.012;-1.648;2023-09-07T06:52:30;66.50;;;45.65;;
71108;SDS011;59614;51.012;-1.648;2023-09-07T06:54:56;70.40;;;46.40;;
71108;SDS011;59614;51.012;-1.648;2023-09-07T06:57:21;75.55;;;50.47;;
71108;SDS011;59614;51.012;-1.648;2023-09-07T06:59:47;75.28;;;46.58;;
71108;SDS011;59614;51.012;-1.648;2023-09-07T07:02:13;76.55;;;50.50;;
71108;SDS011;59614;51.012;-1.648;2023-09-07T07:04:39;73.88;;;47.15;;
71108;SDS011;59614;51.012;-1.648;2023-09-07T07:07:04;58.40;;;38.47;;
71108;SDS011;59614;51.012;-1.648;2023-09-07T07:09:31;71.63;;;44.67;;
71108;SDS011;59614;51.012;-1.648;2023-09-07T07:11:58;61.85;;;41.63;;
71108;SDS011;59614;51.012;-1.648;2023-09-07T07:14:25;65.57;;;45.08;;
71108;SDS011;59614;51.012;-1.648;2023-09-07T07:16:51;74.63;;;47.20;;
71108;SDS011;59614;51.012;-1.648;2023-09-07T07:19:16;67.97;;;44.25;;
71108;SDS011;59614;51.012;-1.648;2023-09-07T07:21:41;72.85;;;42.30;;
71108;SDS011;59614;51.012;-1.648;2023-09-07T07:24:07;76.13;;;48.08;;
71108;SDS011;59614;51.012;-1.648;2023-09-07T07:26:34;62.40;;;40.65;;
71108;SDS011;59614;51.012;-1.648;2023-09-07T07:28:59;69.15;;;46.30;;
71108;SDS011;59614;51.012;-1.648;2023-09-07T07:31:25;69.95;;;47.08;;
71108;SDS011;59614;51.012;-1.648;2023-09-07T07:33:50;69.00;;;47.25;;
71108;SDS011;59614;51.012;-1.648;2023-09-07T07:36:16;68.43;;;45.38;;
71108;SDS011;59614;51.012;-1.648;2023-09-07T07:38:41;61.63;;;43.22;;
71108;SDS011;59614;51.012;-1.648;2023-09-07T07:41:07;54.78;;;37.80;;
71108;SDS011;59614;51.012;-1.648;2023-09-07T07:43:32;56.80;;;37.00;;
71108;SDS011;59614;51.012;-1.648;2023-09-07T07:45:58;64.43;;;42.30;;
71108;SDS011;59614;51.012;-1.648;2023-09-07T07:48:24;55.60;;;38.45;;
71108;SDS011;59614;51.012;-1.648;2023-09-07T07:50:50;60.80;;;42.22;;
71108;SDS011;59614;51.012;-1.648;2023-09-07T07:53:15;59.13;;;43.22;;
71108;SDS011;59614;51.012;-1.648;2023-09-07T07:55:41;56.75;;;40.92;;
71108;SDS011;59614;51.012;-1.648;2023-09-07T07:58:07;58.92;;;43.20;;
71108;SDS011;59614;51.012;-1.648;2023-09-07T08:00:34;54.00;;;39.25;;
71108;SDS011;59614;51.012;-1.648;2023-09-07T08:03:00;55.05;;;39.15;;
71108;SDS011;59614;51.012;-1.648;2023-09-07T08:05:32;56.85;;;40.97;;
71108;SDS011;59614;51.012;-1.648;2023-09-07T08:07:59;54.97;;;40.40;;
71108;SDS011;59614;51.012;-1.648;2023-09-07T08:10:24;47.20;;;34.58;;
71108;SDS011;59614;51.012;-1.648;2023-09-07T08:12:56;54.75;;;38.50;;
71108;SDS011;59614;51.012;-1.648;2023-09-07T08:15:22;53.30;;;38.25;;
71108;SDS011;59614;51.012;-1.648;2023-09-07T08:17:49;55.55;;;41.00;;
71108;SDS011;59614;51.012;-1.648;2023-09-07T08:20:15;52.28;;;39.75;;
71108;SDS011;59614;51.012;-1.648;2023-09-07T08:22:41;52.03;;;39.00;;
71108;SDS011;59614;51.012;-1.648;2023-09-07T08:25:08;53.35;;;39.92;;
71108;SDS011;59614;51.012;-1.648;2023-09-07T08:27:34;53.45;;;40.42;;
71108;SDS011;59614;51.012;-1.648;2023-09-07T08:30:00;50.70;;;36.67;;
71108;SDS011;59614;51.012;-1.648;2023-09-07T08:32:25;49.53;;;36.90;;
71108;SDS011;59614;51.012;-1.648;2023-09-07T08:34:50;47.20;;;33.63;;
71108;SDS011;59614;51.012;-1.648;2023-09-07T08:37:21;44.60;;;31.27;;
71108;SDS011;59614;51.012;-1.648;2023-09-07T08:39:47;52.25;;;36.92;;
71108;SDS011;59614;51.012;-1.648;2023-09-07T08:42:12;41.17;;;30.73;;
71108;SDS011;59614;51.012;-1.648;2023-09-07T08:44:37;45.35;;;33.25;;
71108;SDS011;59614;51.012;-1.648;2023-09-07T08:47:07;47.45;;;32.95;;
71108;SDS011;59614;51.012;-1.648;2023-09-07T08:49:33;49.35;;;34.50;;
71108;SDS011;59614;51.012;-1.648;2023-09-07T08:51:59;40.42;;;28.80;;
71108;SDS011;59614;51.012;-1.648;2023-09-07T08:54:26;40.70;;;28.92;;
71108;SDS011;59614;51.012;-1.648;2023-09-07T08:56:53;42.08;;;28.23;;
71108;SDS011;59614;51.012;-1.648;2023-09-07T08:59:20;37.55;;;28.17;;
71108;SDS011;59614;51.012;-1.648;2023-09-07T09:01:46;40.03;;;28.73;;
71108;SDS011;59614;51.012;-1.648;2023-09-07T09:04:11;45.00;;;30.05;;
71108;SDS011;59614;51.012;-1.648;2023-09-07T09:06:37;37.00;;;25.85;;
71108;SDS011;59614;51.012;-1.648;2023-09-07T09:09:03;48.75;;;27.38;;
71108;SDS011;59614;51.012;-1.648;2023-09-07T09:11:32;32.92;;;24.45;;
71108;SDS011;59614;51.012;-1.648;2023-09-07T09:13:57;58.85;;;29.38;;
71108;SDS011;59614;51.012;-1.648;2023-09-07T09:16:23;48.63;;;26.25;;
71108;SDS011;59614;51.012;-1.648;2023-09-07T09:18:49;37.45;;;24.40;;
71108;SDS011;59614;51.012;-1.648;2023-09-07T09:21:22;34.65;;;25.25;;
71108;SDS011;59614;51.012;-1.648;2023-09-07T09:23:50;26.65;;;19.98;;
71108;SDS011;59614;51.012;-1.648;2023-09-07T09:26:17;33.60;;;23.48;;
71108;SDS011;59614;51.012;-1.648;2023-09-07T09:28:43;38.83;;;26.77;;
71108;SDS011;59614;51.012;-1.648;2023-09-07T09:31:12;33.78;;;26.58;;
71108;SDS011;59614;51.012;-1.648;2023-09-07T09:33:38;32.58;;;21.67;;
71108;SDS011;59614;51.012;-1.648;2023-09-07T09:36:05;32.28;;;22.67;;
71108;SDS011;59614;51.012;-1.648;2023-09-07T09:38:32;27.73;;;21.27;;
71108;SDS011;59614;51.012;-1.648;2023-09-07T09:40:58;30.63;;;22.42;;
71108;SDS011;59614;51.012;-1.648;2023-09-07T09:43:24;24.70;;;20.38;;
71108;SDS011;59614;51.012;-1.648;2023-09-07T09:45:50;29.20;;;19.45;;
71108;SDS011;59614;51.012;-1.648;2023-09-07T09:48:17;29.10;;;22.25;;
71108;SDS011;59614;51.012;-1.648;2023-09-07T09:50:46;31.95;;;19.73;;
71108;SDS011;59614;51.012;-1.648;2023-09-07T09:53:13;30.48;;;22.02;;
71108;SDS011;59614;51.012;-1.648;2023-09-07T09:55:43;22.30;;;16.42;;
71108;SDS011;59614;51.012;-1.648;2023-09-07T09:58:11;23.30;;;16.13;;
71108;SDS011;59614;51.012;-1.648;2023-09-07T10:00:37;26.48;;;18.40;;
71108;SDS011;59614;51.012;-1.648;2023-09-07T10:03:10;22.08;;;16.25;;
71108;SDS011;59614;51.012;-1.648;2023-09-07T10:05:40;25.48;;;17.52;;
71108;SDS011;59614;51.012;-1.648;2023-09-07T10:08:11;21.35;;;15.93;;
71108;SDS011;59614;51.012;-1.648;2023-09-07T10:10:41;23.98;;;15.27;;
71108;SDS011;59614;51.012;-1.648;2023-09-07T10:13:07;22.23;;;13.30;;
71108;SDS011;59614;51.012;-1.648;2023-09-07T10:15:33;20.90;;;13.02;;
71108;SDS011;59614;51.012;-1.648;2023-09-07T10:23:12;18.77;;;10.75;;
71108;SDS011;59614;51.012;-1.648;2023-09-07T10:25:38;13.98;;;8.27;;
71108;SDS011;59614;51.012;-1.648;2023-09-07T10:28:04;37.88;;;11.50;;
71108;SDS011;59614;51.012;-1.648;2023-09-07T10:30:30;15.75;;;10.55;;
71108;SDS011;59614;51.012;-1.648;2023-09-07T10:32:57;18.45;;;10.80;;
71108;SDS011;59614;51.012;-1.648;2023-09-07T10:35:23;20.95;;;9.23;;
71108;SDS011;59614;51.012;-1.648;2023-09-07T10:37:50;16.65;;;10.10;;
71108;SDS011;59614;51.012;-1.648;2023-09-07T10:40:20;19.55;;;9.65;;
71108;SDS011;59614;51.012;-1.648;2023-09-07T10:42:47;15.88;;;8.90;;
71108;SDS011;59614;51.012;-1.648;2023-09-07T10:45:13;17.33;;;7.10;;
71108;SDS011;59614;51.012;-1.648;2023-09-07T10:47:44;19.00;;;9.60;;
71108;SDS011;59614;51.012;-1.648;2023-09-07T10:50:13;14.68;;;7.72;;
71108;SDS011;59614;51.012;-1.648;2023-09-07T10:52:42;13.43;;;6.85;;
71108;SDS011;59614;51.012;-1.648;2023-09-07T10:55:08;13.48;;;8.63;;
71108;SDS011;59614;51.012;-1.648;2023-09-07T10:57:42;13.07;;;8.20;;
71108;SDS011;59614;51.012;-1.648;2023-09-07T11:00:09;18.80;;;8.85;;
71108;SDS011;59614;51.012;-1.648;2023-09-07T11:02:39;12.32;;;7.18;;
71108;SDS011;59614;51.012;-1.648;2023-09-07T11:05:06;11.55;;;6.85;;
71108;SDS011;59614;51.012;-1.648;2023-09-07T11:07:32;11.87;;;6.90;;
71108;SDS011;59614;51.012;-1.648;2023-09-07T11:09:58;9.77;;;6.30;;
71108;SDS011;59614;51.012;-1.648;2023-09-07T11:12:24;12.35;;;6.93;;
71108;SDS011;59614;51.012;-1.648;2023-09-07T11:14:53;9.27;;;5.70;;
71108;SDS011;59614;51.012;-1.648;2023-09-07T11:17:19;10.05;;;6.13;;
71108;SDS011;59614;51.012;-1.648;2023-09-07T11:19:53;12.45;;;7.20;;
71108;SDS011;59614;51.012;-1.648;2023-09-07T11:22:19;12.02;;;6.60;;
71108;SDS011;59614;51.012;-1.648;2023-09-07T11:24:45;8.85;;;5.85;;
71108;SDS011;59614;51.012;-1.648;2023-09-07T11:27:11;10.27;;;5.68;;
71108;SDS011;59614;51.012;-1.648;2023-09-07T11:29:36;11.70;;;6.20;;
71108;SDS011;59614;51.012;-1.648;2023-09-07T11:32:07;8.07;;;5.07;;
71108;SDS011;59614;51.012;-1.648;2023-09-07T11:34:34;9.15;;;5.28;;
71108;SDS011;59614;51.012;-1.648;2023-09-07T11:37:01;11.38;;;4.85;;
71108;SDS011;59614;51.012;-1.648;2023-09-07T11:39:28;11.98;;;4.88;;
71108;SDS011;59614;51.012;-1.648;2023-09-07T11:41:53;8.82;;;4.80;;
71108;SDS011;59614;51.012;-1.648;2023-09-07T11:44:19;8.25;;;4.53;;
71108;SDS011;59614;51.012;-1.648;2023-09-07T11:46:45;7.32;;;4.50;;
71108;SDS011;59614;51.012;-1.648;2023-09-07T11:49:10;9.77;;;4.60;;
71108;SDS011;59614;51.012;-1.648;2023-09-07T11:51:36;7.03;;;4.47;;
71108;SDS011;59614;51.012;-1.648;2023-09-07T11:54:02;10.73;;;4.57;;
71108;SDS011;59614;51.012;-1.648;2023-09-07T11:56:28;11.70;;;5.13;;
71108;SDS011;59614;51.012;-1.648;2023-09-07T11:58:53;8.05;;;4.60;;
71108;SDS011;59614;51.012;-1.648;2023-09-07T12:01:20;7.00;;;4.65;;
71108;SDS011;59614;51.012;-1.648;2023-09-07T12:03:45;8.73;;;4.47;;
71108;SDS011;59614;51.012;-1.648;2023-09-07T12:06:12;9.27;;;5.03;;
71108;SDS011;59614;51.012;-1.648;2023-09-07T12:08:41;11.55;;;5.60;;
71108;SDS011;59614;51.012;-1.648;2023-09-07T12:11:08;9.60;;;5.10;;
71108;SDS011;59614;51.012;-1.648;2023-09-07T12:13:33;9.13;;;4.82;;
71108;SDS011;59614;51.012;-1.648;2023-09-07T12:15:58;11.60;;;5.63;;
71108;SDS011;59614;51.012;-1.648;2023-09-07T12:18:26;14.38;;;4.13;;
71108;SDS011;59614;51.012;-1.648;2023-09-07T12:20:51;7.00;;;3.50;;
71108;SDS011;59614;51.012;-1.648;2023-09-07T12:23:17;6.25;;;3.78;;
71108;SDS011;59614;51.012;-1.648;2023-09-07T12:25:42;10.18;;;4.00;;
71108;SDS011;59614;51.012;-1.648;2023-09-07T12:28:08;7.70;;;3.70;;
71108;SDS011;59614;51.012;-1.648;2023-09-07T12:30:34;18.02;;;4.90;;
71108;SDS011;59614;51.012;-1.648;2023-09-07T12:32:59;8.57;;;3.80;;
71108;SDS011;59614;51.012;-1.648;2023-09-07T12:35:25;9.30;;;4.32;;
71108;SDS011;59614;51.012;-1.648;2023-09-07T12:37:50;14.52;;;4.22;;
71108;SDS011;59614;51.012;-1.648;2023-09-07T12:40:16;7.53;;;4.00;;
71108;SDS011;59614;51.012;-1.648;2023-09-07T12:42:41;9.40;;;4.10;;
71108;SDS011;59614;51.012;-1.648;2023-09-07T12:45:09;6.25;;;4.07;;
71108;SDS011;59614;51.012;-1.648;2023-09-07T12:47:40;6.55;;;4.10;;
71108;SDS011;59614;51.012;-1.648;2023-09-07T12:50:05;7.20;;;4.03;;
71108;SDS011;59614;51.012;-1.648;2023-09-07T12:52:32;10.65;;;5.15;;
71108;SDS011;59614;51.012;-1.648;2023-09-07T12:55:00;10.35;;;4.50;;
71108;SDS011;59614;51.012;-1.648;2023-09-07T12:57:26;7.40;;;4.10;;
71108;SDS011;59614;51.012;-1.648;2023-09-07T12:59:52;8.35;;;4.38;;
71108;SDS011;59614;51.012;-1.648;2023-09-07T13:02:17;7.68;;;4.15;;
71108;SDS011;59614;51.012;-1.648;2023-09-07T13:04:42;12.43;;;4.70;;
71108;SDS011;59614;51.012;-1.648;2023-09-07T13:07:08;11.90;;;4.30;;
71108;SDS011;59614;51.012;-1.648;2023-09-07T13:09:34;9.55;;;4.05;;
71108;SDS011;59614;51.012;-1.648;2023-09-07T13:11:59;9.30;;;3.95;;
71108;SDS011;59614;51.012;-1.648;2023-09-07T13:14:25;6.68;;;3.80;;
71108;SDS011;59614;51.012;-1.648;2023-09-07T13:16:51;9.45;;;3.80;;
71108;SDS011;59614;51.012;-1.648;2023-09-07T13:19:16;10.38;;;4.25;;
71108;SDS011;59614;51.012;-1.648;2023-09-07T13:21:41;10.63;;;4.85;;
71108;SDS011;59614;51.012;-1.648;2023-09-07T13:24:07;8.98;;;4.93;;
71108;SDS011;59614;51.012;-1.648;2023-09-07T13:26:32;8.90;;;4.85;;
71108;SDS011;59614;51.012;-1.648;2023-09-07T13:28:58;7.95;;;4.80;;
71108;SDS011;59614;51.012;-1.648;2023-09-07T13:31:23;15.55;;;4.20;;
71108;SDS011;59614;51.012;-1.648;2023-09-07T13:33:49;6.68;;;3.70;;
71108;SDS011;59614;51.012;-1.648;2023-09-07T13:36:14;8.80;;;3.65;;
71108;SDS011;59614;51.012;-1.648;2023-09-07T13:38:40;11.48;;;3.72;;
71108;SDS011;59614;51.012;-1.648;2023-09-07T13:41:06;14.07;;;3.78;;
71108;SDS011;59614;51.012;-1.648;2023-09-07T13:43:31;10.07;;;4.32;;
71108;SDS011;59614;51.012;-1.648;2023-09-07T13:45:57;9.52;;;4.13;;
71108;SDS011;59614;51.012;-1.648;2023-09-07T13:48:22;9.20;;;3.80;;
71108;SDS011;59614;51.012;-1.648;2023-09-07T13:50:48;8.50;;;3.90;;
71108;SDS011;59614;51.012;-1.648;2023-09-07T13:53:14;7.10;;;3.50;;
71108;SDS011;59614;51.012;-1.648;2023-09-07T13:55:39;7.68;;;4.20;;
71108;SDS011;59614;51.012;-1.648;2023-09-07T13:58:07;9.05;;;3.80;;
71108;SDS011;59614;51.012;-1.648;2023-09-07T14:00:32;9.82;;;4.05;;
71108;SDS011;59614;51.012;-1.648;2023-09-07T14:02:58;8.80;;;5.07;;
71108;SDS011;59614;51.012;-1.648;2023-09-07T14:05:23;13.80;;;4.55;;
71108;SDS011;59614;51.012;-1.648;2023-09-07T14:07:49;10.35;;;4.25;;
71108;SDS011;59614;51.012;-1.648;2023-09-07T14:10:14;6.82;;;3.90;;
71108;SDS011;59614;51.012;-1.648;2023-09-07T14:12:40;11.27;;;4.22;;
71108;SDS011;59614;51.012;-1.648;2023-09-07T14:15:07;7.68;;;4.22;;
71108;SDS011;59614;51.012;-1.648;2023-09-07T14:17:33;8.80;;;3.92;;